Garuva, Brazil
Current Conditions -  °F | °C
As of 10:00 PM on Wednesday 28 Jan 2015 (Local Time) from SBJV Reporting Station
Clear Clear  
Wind Chill: 75°   Ceiling: Unl
Heat Index: 75°   Visibility: 6mi
Dew Point: 75°   Wind: 1mph
Humidity: 100%   Direction: 270°W
Pressure: 29.83"   Gusts: NA
Location:  26.03°S, 48.85°W
Report Text: SBJV 290000Z 27001KT CAVOK 24/24 Q1010
Loading
Personal Weather Stations






























Interactive Weather Map New forecast layout! Learn more

10-Day Weather Forecast

Advertisements
Track Severe Weather on mobile